sensor_id;sensor_type;location;lat;lon;timestamp;temperature;humidity
3940;DHT22;1984;48.312;9.244;2022-09-09T00:04:31;11.70;99.90
3940;DHT22;1984;48.312;9.244;2022-09-09T00:07:13;11.70;99.90
3940;DHT22;1984;48.312;9.244;2022-09-09T00:10:09;11.60;99.90
3940;DHT22;1984;48.312;9.244;2022-09-09T00:13:02;11.60;99.90
3940;DHT22;1984;48.312;9.244;2022-09-09T00:21:11;11.50;99.90
3940;DHT22;1984;48.312;9.244;2022-09-09T00:23:40;11.50;99.90
3940;DHT22;1984;48.312;9.244;2022-09-09T00:31:23;11.40;99.90
3940;DHT22;1984;48.312;9.244;2022-09-09T00:33:50;11.40;99.90
3940;DHT22;1984;48.312;9.244;2022-09-09T00:36:21;11.40;99.90
3940;DHT22;1984;48.312;9.244;2022-09-09T00:38:51;11.30;99.90
3940;DHT22;1984;48.312;9.244;2022-09-09T00:47:02;11.30;99.90
3940;DHT22;1984;48.312;9.244;2022-09-09T00:49:37;11.20;99.90
3940;DHT22;1984;48.312;9.244;2022-09-09T00:57:30;11.20;99.90
3940;DHT22;1984;48.312;9.244;2022-09-09T01:00:29;11.20;99.90
3940;DHT22;1984;48.312;9.244;2022-09-09T01:08:01;11.20;99.90
3940;DHT22;1984;48.312;9.244;2022-09-09T01:10:44;11.20;99.90
3940;DHT22;1984;48.312;9.244;2022-09-09T01:13:25;11.20;99.90
3940;DHT22;1984;48.312;9.244;2022-09-09T01:15:53;11.20;99.90
3940;DHT22;1984;48.312;9.244;2022-09-09T01:18:21;11.10;99.90
3940;DHT22;1984;48.312;9.244;2022-09-09T01:21:02;11.10;99.90
3940;DHT22;1984;48.312;9.244;2022-09-09T01:23:54;11.10;99.90
3940;DHT22;1984;48.312;9.244;2022-09-09T01:29:01;11.00;99.90
3940;DHT22;1984;48.312;9.244;2022-09-09T01:31:39;11.00;99.90
3940;DHT22;1984;48.312;9.244;2022-09-09T01:34:14;11.10;99.90
3940;DHT22;1984;48.312;9.244;2022-09-09T01:36:45;11.10;99.90
3940;DHT22;1984;48.312;9.244;2022-09-09T01:39:12;11.00;99.90
3940;DHT22;1984;48.312;9.244;2022-09-09T01:41:38;11.00;99.90
3940;DHT22;1984;48.312;9.244;2022-09-09T01:44:04;11.00;99.90
3940;DHT22;1984;48.312;9.244;2022-09-09T01:46:31;11.00;99.90
3940;DHT22;1984;48.312;9.244;2022-09-09T01:48:57;10.90;99.90
3940;DHT22;1984;48.312;9.244;2022-09-09T01:51:23;10.90;99.90
3940;DHT22;1984;48.312;9.244;2022-09-09T01:53:49;10.90;99.90
3940;DHT22;1984;48.312;9.244;2022-09-09T01:56:31;10.90;99.90
3940;DHT22;1984;48.312;9.244;2022-09-09T02:04:33;10.70;99.90
3940;DHT22;1984;48.312;9.244;2022-09-09T02:07:00;10.70;99.90
3940;DHT22;1984;48.312;9.244;2022-09-09T02:09:26;10.70;99.90
3940;DHT22;1984;48.312;9.244;2022-09-09T02:12:11;10.80;99.90
3940;DHT22;1984;48.312;9.244;2022-09-09T02:14:45;10.80;99.90
3940;DHT22;1984;48.312;9.244;2022-09-09T02:17:15;10.80;99.90
3940;DHT22;1984;48.312;9.244;2022-09-09T02:19:46;10.80;99.90
3940;DHT22;1984;48.312;9.244;2022-09-09T02:22:17;10.80;99.90
3940;DHT22;1984;48.312;9.244;2022-09-09T02:24:44;10.80;99.90
3940;DHT22;1984;48.312;9.244;2022-09-09T02:27:12;10.90;99.90
3940;DHT22;1984;48.312;9.244;2022-09-09T02:29:40;10.90;99.90
3940;DHT22;1984;48.312;9.244;2022-09-09T02:32:11;10.90;99.90
3940;DHT22;1984;48.312;9.244;2022-09-09T02:34:45;10.80;99.90
3940;DHT22;1984;48.312;9.244;2022-09-09T02:37:13;10.90;99.90
3940;DHT22;1984;48.312;9.244;2022-09-09T02:39:40;10.90;99.90
3940;DHT22;1984;48.312;9.244;2022-09-09T02:42:05;10.90;99.90
3940;DHT22;1984;48.312;9.244;2022-09-09T02:44:33;11.00;99.90
3940;DHT22;1984;48.312;9.244;2022-09-09T02:50:04;11.10;99.90
3940;DHT22;1984;48.312;9.244;2022-09-09T02:57:52;11.20;99.90
3940;DHT22;1984;48.312;9.244;2022-09-09T03:00:24;11.30;99.90
3940;DHT22;1984;48.312;9.244;2022-09-09T03:02:50;11.30;99.90
3940;DHT22;1984;48.312;9.244;2022-09-09T03:05:16;11.40;99.90
3940;DHT22;1984;48.312;9.244;2022-09-09T03:07:42;11.40;99.90
3940;DHT22;1984;48.312;9.244;2022-09-09T03:10:08;11.50;99.90
3940;DHT22;1984;48.312;9.244;2022-09-09T03:12:33;11.40;99.90
3940;DHT22;1984;48.312;9.244;2022-09-09T03:14:59;11.40;99.90
3940;DHT22;1984;48.312;9.244;2022-09-09T03:17:24;11.40;99.90
3940;DHT22;1984;48.312;9.244;2022-09-09T03:19:50;11.40;99.90
3940;DHT22;1984;48.312;9.244;2022-09-09T03:22:17;11.50;99.90
3940;DHT22;1984;48.312;9.244;2022-09-09T03:24:43;11.50;99.90
3940;DHT22;1984;48.312;9.244;2022-09-09T03:27:08;11.60;99.90
3940;DHT22;1984;48.312;9.244;2022-09-09T03:29:34;11.60;99.90
3940;DHT22;1984;48.312;9.244;2022-09-09T03:32:00;11.70;99.90
3940;DHT22;1984;48.312;9.244;2022-09-09T03:34:25;11.60;99.90
3940;DHT22;1984;48.312;9.244;2022-09-09T03:36:51;11.60;99.90
3940;DHT22;1984;48.312;9.244;2022-09-09T03:39:16;11.70;99.90
3940;DHT22;1984;48.312;9.244;2022-09-09T03:41:42;11.70;99.90
3940;DHT22;1984;48.312;9.244;2022-09-09T03:44:12;11.70;99.90
3940;DHT22;1984;48.312;9.244;2022-09-09T03:46:38;11.70;99.90
3940;DHT22;1984;48.312;9.244;2022-09-09T03:49:03;11.70;99.90
3940;DHT22;1984;48.312;9.244;2022-09-09T03:51:29;11.70;99.90
3940;DHT22;1984;48.312;9.244;2022-09-09T03:53:55;11.60;99.90
3940;DHT22;1984;48.312;9.244;2022-09-09T03:56:22;11.60;99.90
3940;DHT22;1984;48.312;9.244;2022-09-09T03:58:47;11.60;99.90
3940;DHT22;1984;48.312;9.244;2022-09-09T04:01:13;11.60;99.90
3940;DHT22;1984;48.312;9.244;2022-09-09T04:03:40;11.70;99.90
3940;DHT22;1984;48.312;9.244;2022-09-09T04:06:07;11.70;99.90
3940;DHT22;1984;48.312;9.244;2022-09-09T04:08:33;11.80;99.90
3940;DHT22;1984;48.312;9.244;2022-09-09T04:11:01;11.80;99.90
3940;DHT22;1984;48.312;9.244;2022-09-09T04:13:35;11.80;99.90
3940;DHT22;1984;48.312;9.244;2022-09-09T04:16:02;11.90;99.90
3940;DHT22;1984;48.312;9.244;2022-09-09T04:18:29;11.90;99.90
3940;DHT22;1984;48.312;9.244;2022-09-09T04:20:55;11.90;99.90
3940;DHT22;1984;48.312;9.244;2022-09-09T04:23:23;11.90;99.90
3940;DHT22;1984;48.312;9.244;2022-09-09T04:25:54;11.90;99.90
3940;DHT22;1984;48.312;9.244;2022-09-09T04:28:21;12.00;99.90
3940;DHT22;1984;48.312;9.244;2022-09-09T04:30:47;12.00;99.90
3940;DHT22;1984;48.312;9.244;2022-09-09T04:33:14;12.10;99.90
3940;DHT22;1984;48.312;9.244;2022-09-09T04:35:43;12.10;99.90
3940;DHT22;1984;48.312;9.244;2022-09-09T04:38:09;12.10;99.90
3940;DHT22;1984;48.312;9.244;2022-09-09T04:40:35;12.10;99.90
3940;DHT22;1984;48.312;9.244;2022-09-09T04:43:02;12.10;99.90
3940;DHT22;1984;48.312;9.244;2022-09-09T04:45:30;12.20;99.90
3940;DHT22;1984;48.312;9.244;2022-09-09T04:47:56;12.20;99.90
3940;DHT22;1984;48.312;9.244;2022-09-09T04:50:22;12.20;99.90
3940;DHT22;1984;48.312;9.244;2022-09-09T04:52:47;12.30;99.90
3940;DHT22;1984;48.312;9.244;2022-09-09T04:55:13;12.30;99.90
3940;DHT22;1984;48.312;9.244;2022-09-09T04:57:40;12.30;99.90
3940;DHT22;1984;48.312;9.244;2022-09-09T05:00:06;12.30;99.90
3940;DHT22;1984;48.312;9.244;2022-09-09T05:02:32;12.30;99.90
3940;DHT22;1984;48.312;9.244;2022-09-09T05:04:58;12.30;99.90
3940;DHT22;1984;48.312;9.244;2022-09-09T05:07:24;12.30;99.90
3940;DHT22;1984;48.312;9.244;2022-09-09T05:09:51;12.40;99.90
3940;DHT22;1984;48.312;9.244;2022-09-09T05:12:17;12.40;99.90
3940;DHT22;1984;48.312;9.244;2022-09-09T05:14:43;12.30;99.90
3940;DHT22;1984;48.312;9.244;2022-09-09T05:17:09;12.30;99.90
3940;DHT22;1984;48.312;9.244;2022-09-09T05:19:35;12.20;99.90
3940;DHT22;1984;48.312;9.244;2022-09-09T05:22:00;12.30;99.90
3940;DHT22;1984;48.312;9.244;2022-09-09T05:24:26;12.30;99.90
3940;DHT22;1984;48.312;9.244;2022-09-09T05:26:52;12.30;99.90
3940;DHT22;1984;48.312;9.244;2022-09-09T05:29:17;12.40;99.90
3940;DHT22;1984;48.312;9.244;2022-09-09T05:31:45;12.50;99.90
3940;DHT22;1984;48.312;9.244;2022-09-09T05:34:10;12.50;99.90
3940;DHT22;1984;48.312;9.244;2022-09-09T05:36:36;12.60;99.90
3940;DHT22;1984;48.312;9.244;2022-09-09T05:39:02;12.60;99.90
3940;DHT22;1984;48.312;9.244;2022-09-09T05:41:28;12.70;99.90
3940;DHT22;1984;48.312;9.244;2022-09-09T05:43:54;12.70;99.90
3940;DHT22;1984;48.312;9.244;2022-09-09T05:46:22;12.80;99.90
3940;DHT22;1984;48.312;9.244;2022-09-09T05:48:49;12.90;99.90
3940;DHT22;1984;48.312;9.244;2022-09-09T05:51:19;12.90;99.90
3940;DHT22;1984;48.312;9.244;2022-09-09T05:53:47;13.00;99.90
3940;DHT22;1984;48.312;9.244;2022-09-09T05:56:15;13.10;99.90
3940;DHT22;1984;48.312;9.244;2022-09-09T05:58:41;13.20;99.90
3940;DHT22;1984;48.312;9.244;2022-09-09T06:01:16;13.20;99.90
3940;DHT22;1984;48.312;9.244;2022-09-09T06:03:43;13.30;99.90
3940;DHT22;1984;48.312;9.244;2022-09-09T06:06:11;13.30;99.90
3940;DHT22;1984;48.312;9.244;2022-09-09T06:08:39;13.40;99.90
3940;DHT22;1984;48.312;9.244;2022-09-09T06:11:07;13.50;99.90
3940;DHT22;1984;48.312;9.244;2022-09-09T06:13:33;13.60;99.90
3940;DHT22;1984;48.312;9.244;2022-09-09T06:16:00;13.70;99.90
3940;DHT22;1984;48.312;9.244;2022-09-09T06:18:26;13.70;99.90
3940;DHT22;1984;48.312;9.244;2022-09-09T06:20:57;13.60;99.90
3940;DHT22;1984;48.312;9.244;2022-09-09T06:23:23;13.60;99.90
3940;DHT22;1984;48.312;9.244;2022-09-09T06:25:48;13.60;99.90
3940;DHT22;1984;48.312;9.244;2022-09-09T06:28:15;13.80;99.90
3940;DHT22;1984;48.312;9.244;2022-09-09T06:30:41;13.90;99.90
3940;DHT22;1984;48.312;9.244;2022-09-09T06:33:06;14.10;99.90
3940;DHT22;1984;48.312;9.244;2022-09-09T06:35:32;14.30;99.90
3940;DHT22;1984;48.312;9.244;2022-09-09T06:37:57;14.50;99.90
3940;DHT22;1984;48.312;9.244;2022-09-09T06:40:24;14.70;99.90
3940;DHT22;1984;48.312;9.244;2022-09-09T06:42:49;15.00;99.90
3940;DHT22;1984;48.312;9.244;2022-09-09T06:45:15;15.30;99.90
3940;DHT22;1984;48.312;9.244;2022-09-09T06:47:40;15.50;99.90
3940;DHT22;1984;48.312;9.244;2022-09-09T06:50:07;15.50;99.90
3940;DHT22;1984;48.312;9.244;2022-09-09T06:52:33;15.50;99.90
3940;DHT22;1984;48.312;9.244;2022-09-09T06:54:59;15.50;99.90
3940;DHT22;1984;48.312;9.244;2022-09-09T06:57:24;15.40;99.90
3940;DHT22;1984;48.312;9.244;2022-09-09T06:59:50;15.40;99.90
3940;DHT22;1984;48.312;9.244;2022-09-09T07:02:16;15.50;99.90
3940;DHT22;1984;48.312;9.244;2022-09-09T07:04:41;15.60;99.90
3940;DHT22;1984;48.312;9.244;2022-09-09T07:07:07;15.60;99.90
3940;DHT22;1984;48.312;9.244;2022-09-09T07:09:35;15.70;99.90
3940;DHT22;1984;48.312;9.244;2022-09-09T07:12:00;15.80;99.90
3940;DHT22;1984;48.312;9.244;2022-09-09T07:14:26;16.00;99.90
3940;DHT22;1984;48.312;9.244;2022-09-09T07:16:52;16.20;99.90
3940;DHT22;1984;48.312;9.244;2022-09-09T07:19:18;16.50;99.90
3940;DHT22;1984;48.312;9.244;2022-09-09T07:21:43;17.70;99.90
3940;DHT22;1984;48.312;9.244;2022-09-09T07:24:10;19.20;99.90
3940;DHT22;1984;48.312;9.244;2022-09-09T07:26:37;20.90;99.90
3940;DHT22;1984;48.312;9.244;2022-09-09T07:29:03;21.60;99.90
3940;DHT22;1984;48.312;9.244;2022-09-09T07:31:31;22.70;99.90
3940;DHT22;1984;48.312;9.244;2022-09-09T07:33:57;22.30;99.90
3940;DHT22;1984;48.312;9.244;2022-09-09T07:36:36;20.80;99.90
3940;DHT22;1984;48.312;9.244;2022-09-09T07:39:04;19.90;99.90
3940;DHT22;1984;48.312;9.244;2022-09-09T07:41:39;19.30;99.90
3940;DHT22;1984;48.312;9.244;2022-09-09T07:44:10;18.80;99.90
3940;DHT22;1984;48.312;9.244;2022-09-09T07:46:36;18.40;99.90
3940;DHT22;1984;48.312;9.244;2022-09-09T07:49:02;19.30;99.90
3940;DHT22;1984;48.312;9.244;2022-09-09T07:51:31;21.20;99.90
3940;DHT22;1984;48.312;9.244;2022-09-09T07:53:59;22.30;99.90
3940;DHT22;1984;48.312;9.244;2022-09-09T07:56:28;23.20;99.90
3940;DHT22;1984;48.312;9.244;2022-09-09T07:58:55;24.50;99.90
3940;DHT22;1984;48.312;9.244;2022-09-09T08:06:25;27.20;99.90
3940;DHT22;1984;48.312;9.244;2022-09-09T08:08:52;27.40;99.90
3940;DHT22;1984;48.312;9.244;2022-09-09T08:11:18;27.20;99.90
3940;DHT22;1984;48.312;9.244;2022-09-09T08:13:44;27.00;99.90
3940;DHT22;1984;48.312;9.244;2022-09-09T08:16:15;26.80;99.90
3940;DHT22;1984;48.312;9.244;2022-09-09T08:18:42;25.80;99.90
3940;DHT22;1984;48.312;9.244;2022-09-09T08:21:13;24.20;99.90
3940;DHT22;1984;48.312;9.244;2022-09-09T08:23:43;23.20;99.90
3940;DHT22;1984;48.312;9.244;2022-09-09T08:26:13;22.20;99.90
3940;DHT22;1984;48.312;9.244;2022-09-09T08:28:40;21.30;99.90
3940;DHT22;1984;48.312;9.244;2022-09-09T08:31:24;20.60;99.90
3940;DHT22;1984;48.312;9.244;2022-09-09T08:33:50;19.90;99.90
3940;DHT22;1984;48.312;9.244;2022-09-09T08:36:20;19.40;99.90
3940;DHT22;1984;48.312;9.244;2022-09-09T08:38:56;19.00;99.90
3940;DHT22;1984;48.312;9.244;2022-09-09T08:55:25;18.00;99.90
3940;DHT22;1984;48.312;9.244;2022-09-09T08:57:54;17.90;99.90
3940;DHT22;1984;48.312;9.244;2022-09-09T09:00:21;18.00;99.90
3940;DHT22;1984;48.312;9.244;2022-09-09T09:08:59;18.20;99.90
3940;DHT22;1984;48.312;9.244;2022-09-09T09:11:22;18.70;99.90
3940;DHT22;1984;48.312;9.244;2022-09-09T09:13:53;19.60;99.90
3940;DHT22;1984;48.312;9.244;2022-09-09T09:16:26;20.70;99.90
3940;DHT22;1984;48.312;9.244;2022-09-09T09:18:54;21.50;99.90
3940;DHT22;1984;48.312;9.244;2022-09-09T09:21:42;22.50;99.90
3940;DHT22;1984;48.312;9.244;2022-09-09T09:24:29;24.30;99.90
3940;DHT22;1984;48.312;9.244;2022-09-09T09:27:11;26.60;99.90
3940;DHT22;1984;48.312;9.244;2022-09-09T09:29:38;27.80;99.90
3940;DHT22;1984;48.312;9.244;2022-09-09T09:32:07;27.60;99.90
3940;DHT22;1984;48.312;9.244;2022-09-09T09:34:34;26.60;99.40
3940;DHT22;1984;48.312;9.244;2022-09-09T09:37:00;25.40;99.90
3940;DHT22;1984;48.312;9.244;2022-09-09T09:39:33;24.00;99.90
3940;DHT22;1984;48.312;9.244;2022-09-09T09:42:14;23.40;99.90
3940;DHT22;1984;48.312;9.244;2022-09-09T09:44:41;22.90;99.90
3940;DHT22;1984;48.312;9.244;2022-09-09T09:47:15;22.40;99.90
3940;DHT22;1984;48.312;9.244;2022-09-09T09:49:57;22.00;99.90
3940;DHT22;1984;48.312;9.244;2022-09-09T09:52:26;21.50;99.90
3940;DHT22;1984;48.312;9.244;2022-09-09T09:54:54;21.90;99.90
3940;DHT22;1984;48.312;9.244;2022-09-09T09:57:27;23.70;99.90
3940;DHT22;1984;48.312;9.244;2022-09-09T10:02:43;26.10;96.80
3940;DHT22;1984;48.312;9.244;2022-09-09T10:07:41;25.70;95.90
3940;DHT22;1984;48.312;9.244;2022-09-09T10:10:20;26.00;96.10
3940;DHT22;1984;48.312;9.244;2022-09-09T10:13:02;27.20;94.50
3940;DHT22;1984;48.312;9.244;2022-09-09T10:15:37;26.20;93.10
3940;DHT22;1984;48.312;9.244;2022-09-09T10:23:29;22.90;97.50
3940;DHT22;1984;48.312;9.244;2022-09-09T10:26:38;23.50;96.70
3940;DHT22;1984;48.312;9.244;2022-09-09T10:29:11;22.90;96.80
3940;DHT22;1984;48.312;9.244;2022-09-09T10:34:56;21.30;97.80
3940;DHT22;1984;48.312;9.244;2022-09-09T10:37:44;20.70;98.80
3940;DHT22;1984;48.312;9.244;2022-09-09T10:42:58;19.80;99.90
3940;DHT22;1984;48.312;9.244;2022-09-09T10:48:55;20.00;99.90
3940;DHT22;1984;48.312;9.244;2022-09-09T10:54:29;23.40;99.50
3940;DHT22;1984;48.312;9.244;2022-09-09T10:57:45;24.90;96.70
3940;DHT22;1984;48.312;9.244;2022-09-09T10:59:50;25.80;95.80
3940;DHT22;1984;48.312;9.244;2022-09-09T11:05:06;26.40;92.50
3940;DHT22;1984;48.312;9.244;2022-09-09T11:07:44;26.30;91.80
3940;DHT22;1984;48.312;9.244;2022-09-09T11:10:30;26.00;92.20
3940;DHT22;1984;48.312;9.244;2022-09-09T11:13:04;26.00;93.50
3940;DHT22;1984;48.312;9.244;2022-09-09T11:15:42;25.00;91.00
3940;DHT22;1984;48.312;9.244;2022-09-09T11:18:19;24.10;92.90
3940;DHT22;1984;48.312;9.244;2022-09-09T11:20:46;23.50;93.20
3940;DHT22;1984;48.312;9.244;2022-09-09T11:23:23;23.30;93.90
3940;DHT22;1984;48.312;9.244;2022-09-09T11:25:55;23.30;93.00
3940;DHT22;1984;48.312;9.244;2022-09-09T11:31:46;22.00;94.30
3940;DHT22;1984;48.312;9.244;2022-09-09T11:40:04;21.70;95.10
3940;DHT22;1984;48.312;9.244;2022-09-09T11:42:33;21.40;96.20
3940;DHT22;1984;48.312;9.244;2022-09-09T11:45:19;21.20;96.00
3940;DHT22;1984;48.312;9.244;2022-09-09T11:47:58;21.00;96.70
3940;DHT22;1984;48.312;9.244;2022-09-09T11:52:50;21.30;97.30
3940;DHT22;1984;48.312;9.244;2022-09-09T11:55:28;21.50;95.80
3940;DHT22;1984;48.312;9.244;2022-09-09T12:03:34;22.70;97.40
3940;DHT22;1984;48.312;9.244;2022-09-09T12:06:31;23.00;96.00
3940;DHT22;1984;48.312;9.244;2022-09-09T12:09:06;23.20;93.90
3940;DHT22;1984;48.312;9.244;2022-09-09T12:11:33;23.20;94.60
3940;DHT22;1984;48.312;9.244;2022-09-09T12:14:00;23.10;96.20
3940;DHT22;1984;48.312;9.244;2022-09-09T12:16:32;23.10;95.80
3940;DHT22;1984;48.312;9.244;2022-09-09T12:19:14;22.80;94.70
3940;DHT22;1984;48.312;9.244;2022-09-09T12:24:52;22.30;95.60
3940;DHT22;1984;48.312;9.244;2022-09-09T12:27:27;22.00;95.10
3940;DHT22;1984;48.312;9.244;2022-09-09T12:32:25;22.10;95.60
3940;DHT22;1984;48.312;9.244;2022-09-09T12:34:54;22.00;95.20
3940;DHT22;1984;48.312;9.244;2022-09-09T12:37:37;22.10;94.20
3940;DHT22;1984;48.312;9.244;2022-09-09T12:40:23;22.10;94.00
3940;DHT22;1984;48.312;9.244;2022-09-09T12:42:49;22.20;94.30
3940;DHT22;1984;48.312;9.244;2022-09-09T12:45:24;22.40;93.20
3940;DHT22;1984;48.312;9.244;2022-09-09T12:47:57;22.60;92.30
3940;DHT22;1984;48.312;9.244;2022-09-09T12:50:32;22.60;92.90
3940;DHT22;1984;48.312;9.244;2022-09-09T12:53:06;22.50;93.60
3940;DHT22;1984;48.312;9.244;2022-09-09T12:55:37;22.20;93.60
3940;DHT22;1984;48.312;9.244;2022-09-09T12:58:05;21.80;95.70
3940;DHT22;1984;48.312;9.244;2022-09-09T13:00:32;21.60;97.80
3940;DHT22;1984;48.312;9.244;2022-09-09T13:03:00;21.70;97.30
3940;DHT22;1984;48.312;9.244;2022-09-09T13:05:37;21.80;98.30
3940;DHT22;1984;48.312;9.244;2022-09-09T13:08:06;21.80;99.00
3940;DHT22;1984;48.312;9.244;2022-09-09T13:10:35;21.70;99.60
3940;DHT22;1984;48.312;9.244;2022-09-09T13:13:04;21.50;99.40
3940;DHT22;1984;48.312;9.244;2022-09-09T13:15:30;21.40;99.90
3940;DHT22;1984;48.312;9.244;2022-09-09T13:17:58;21.30;99.90
3940;DHT22;1984;48.312;9.244;2022-09-09T13:20:26;21.20;99.90
3940;DHT22;1984;48.312;9.244;2022-09-09T13:22:53;21.30;99.90
3940;DHT22;1984;48.312;9.244;2022-09-09T13:25:28;21.30;99.90
3940;DHT22;1984;48.312;9.244;2022-09-09T13:28:02;21.30;99.90
3940;DHT22;1984;48.312;9.244;2022-09-09T13:30:36;21.10;99.60
3940;DHT22;1984;48.312;9.244;2022-09-09T13:35:52;20.90;99.20
3940;DHT22;1984;48.312;9.244;2022-09-09T13:38:19;20.90;99.20
3940;DHT22;1984;48.312;9.244;2022-09-09T13:40:59;21.00;99.80
3940;DHT22;1984;48.312;9.244;2022-09-09T13:43:28;20.90;99.00
3940;DHT22;1984;48.312;9.244;2022-09-09T13:46:03;20.80;98.40
3940;DHT22;1984;48.312;9.244;2022-09-09T13:48:29;20.90;99.20
3940;DHT22;1984;48.312;9.244;2022-09-09T13:50:59;20.80;98.60
3940;DHT22;1984;48.312;9.244;2022-09-09T13:53:25;20.70;98.10
3940;DHT22;1984;48.312;9.244;2022-09-09T13:55:51;20.60;98.90
3940;DHT22;1984;48.312;9.244;2022-09-09T13:58:17;20.70;99.10
3940;DHT22;1984;48.312;9.244;2022-09-09T14:00:48;20.70;98.70
3940;DHT22;1984;48.312;9.244;2022-09-09T14:03:13;20.90;98.40
3940;DHT22;1984;48.312;9.244;2022-09-09T14:05:39;20.70;97.60
3940;DHT22;1984;48.312;9.244;2022-09-09T14:08:06;20.50;97.00
3940;DHT22;1984;48.312;9.244;2022-09-09T14:10:33;20.20;97.30
3940;DHT22;1984;48.312;9.244;2022-09-09T14:13:02;20.20;97.60
3940;DHT22;1984;48.312;9.244;2022-09-09T14:15:28;20.10;97.60
3940;DHT22;1984;48.312;9.244;2022-09-09T14:17:54;20.00;97.50
3940;DHT22;1984;48.312;9.244;2022-09-09T14:20:20;20.10;99.20
3940;DHT22;1984;48.312;9.244;2022-09-09T14:22:45;20.20;98.60
3940;DHT22;1984;48.312;9.244;2022-09-09T14:25:11;20.30;98.40
3940;DHT22;1984;48.312;9.244;2022-09-09T14:27:39;20.20;98.00
3940;DHT22;1984;48.312;9.244;2022-09-09T14:30:05;20.20;97.90
3940;DHT22;1984;48.312;9.244;2022-09-09T14:32:31;20.00;98.10
3940;DHT22;1984;48.312;9.244;2022-09-09T14:34:58;20.10;98.60
3940;DHT22;1984;48.312;9.244;2022-09-09T14:37:23;20.10;98.40
3940;DHT22;1984;48.312;9.244;2022-09-09T14:39:49;20.10;98.60
3940;DHT22;1984;48.312;9.244;2022-09-09T14:42:16;20.00;98.40
3940;DHT22;1984;48.312;9.244;2022-09-09T14:44:41;20.00;98.90
3940;DHT22;1984;48.312;9.244;2022-09-09T14:47:07;19.90;98.20
3940;DHT22;1984;48.312;9.244;2022-09-09T14:49:34;19.90;98.30
3940;DHT22;1984;48.312;9.244;2022-09-09T14:52:00;20.00;98.80
3940;DHT22;1984;48.312;9.244;2022-09-09T14:54:26;20.30;98.30
3940;DHT22;1984;48.312;9.244;2022-09-09T14:56:51;20.70;98.80
3940;DHT22;1984;48.312;9.244;2022-09-09T14:59:17;20.70;97.60
3940;DHT22;1984;48.312;9.244;2022-09-09T15:01:42;20.60;97.70
3940;DHT22;1984;48.312;9.244;2022-09-09T15:04:12;20.50;97.80
3940;DHT22;1984;48.312;9.244;2022-09-09T15:06:38;20.30;98.20
3940;DHT22;1984;48.312;9.244;2022-09-09T15:09:04;20.20;98.60
3940;DHT22;1984;48.312;9.244;2022-09-09T15:11:33;20.20;98.10
3940;DHT22;1984;48.312;9.244;2022-09-09T15:14:03;20.10;98.10
3940;DHT22;1984;48.312;9.244;2022-09-09T15:16:29;19.90;97.80
3940;DHT22;1984;48.312;9.244;2022-09-09T15:18:59;19.70;98.50
3940;DHT22;1984;48.312;9.244;2022-09-09T15:21:30;19.50;98.70
3940;DHT22;1984;48.312;9.244;2022-09-09T15:23:56;19.30;98.60
3940;DHT22;1984;48.312;9.244;2022-09-09T15:26:22;19.20;98.90
3940;DHT22;1984;48.312;9.244;2022-09-09T15:28:49;19.10;99.00
3940;DHT22;1984;48.312;9.244;2022-09-09T15:31:20;19.10;99.70
3940;DHT22;1984;48.312;9.244;2022-09-09T15:33:48;19.00;99.60
3940;DHT22;1984;48.312;9.244;2022-09-09T15:38:43;18.80;99.40
3940;DHT22;1984;48.312;9.244;2022-09-09T15:41:09;18.70;98.80
3940;DHT22;1984;48.312;9.244;2022-09-09T15:43:35;18.60;99.30
3940;DHT22;1984;48.312;9.244;2022-09-09T15:46:20;18.60;99.90
3940;DHT22;1984;48.312;9.244;2022-09-09T15:48:49;18.50;99.90
3940;DHT22;1984;48.312;9.244;2022-09-09T15:51:16;18.70;99.90
3940;DHT22;1984;48.312;9.244;2022-09-09T15:53:42;18.70;99.90
3940;DHT22;1984;48.312;9.244;2022-09-09T15:56:07;18.70;99.90
3940;DHT22;1984;48.312;9.244;2022-09-09T15:58:34;18.80;99.90
3940;DHT22;1984;48.312;9.244;2022-09-09T16:01:06;18.90;99.80
3940;DHT22;1984;48.312;9.244;2022-09-09T16:03:36;18.90;99.90
3940;DHT22;1984;48.312;9.244;2022-09-09T16:06:03;19.10;99.90
3940;DHT22;1984;48.312;9.244;2022-09-09T16:08:34;19.00;98.90
3940;DHT22;1984;48.312;9.244;2022-09-09T16:11:05;19.00;99.30
3940;DHT22;1984;48.312;9.244;2022-09-09T16:13:33;19.00;98.00
3940;DHT22;1984;48.312;9.244;2022-09-09T16:15:59;18.90;97.70
3940;DHT22;1984;48.312;9.244;2022-09-09T16:18:24;18.90;98.10
3940;DHT22;1984;48.312;9.244;2022-09-09T16:20:54;18.90;98.60
3940;DHT22;1984;48.312;9.244;2022-09-09T16:23:20;19.00;98.30
3940;DHT22;1984;48.312;9.244;2022-09-09T16:25:54;19.00;98.10
3940;DHT22;1984;48.312;9.244;2022-09-09T16:28:20;18.90;98.50
3940;DHT22;1984;48.312;9.244;2022-09-09T16:30:45;18.80;98.40
3940;DHT22;1984;48.312;9.244;2022-09-09T16:33:11;18.70;99.00
3940;DHT22;1984;48.312;9.244;2022-09-09T16:35:36;18.60;99.20
3940;DHT22;1984;48.312;9.244;2022-09-09T16:38:04;18.50;99.90
3940;DHT22;1984;48.312;9.244;2022-09-09T16:40:29;18.30;99.70
3940;DHT22;1984;48.312;9.244;2022-09-09T16:42:55;18.20;99.90
3940;DHT22;1984;48.312;9.244;2022-09-09T16:45:21;18.10;99.90
3940;DHT22;1984;48.312;9.244;2022-09-09T16:47:47;18.00;99.90
3940;DHT22;1984;48.312;9.244;2022-09-09T16:50:14;18.00;99.90
3940;DHT22;1984;48.312;9.244;2022-09-09T16:52:39;17.90;99.90
3940;DHT22;1984;48.312;9.244;2022-09-09T16:55:05;17.80;99.90
3940;DHT22;1984;48.312;9.244;2022-09-09T16:57:30;17.70;99.90
3940;DHT22;1984;48.312;9.244;2022-09-09T16:59:56;17.60;99.90
3940;DHT22;1984;48.312;9.244;2022-09-09T17:02:24;17.50;99.90
3940;DHT22;1984;48.312;9.244;2022-09-09T17:04:50;17.50;99.90
3940;DHT22;1984;48.312;9.244;2022-09-09T17:07:16;17.40;99.90
3940;DHT22;1984;48.312;9.244;2022-09-09T17:09:42;17.40;99.90
3940;DHT22;1984;48.312;9.244;2022-09-09T17:12:07;17.40;99.90
3940;DHT22;1984;48.312;9.244;2022-09-09T17:14:34;17.40;99.90
3940;DHT22;1984;48.312;9.244;2022-09-09T17:16:59;17.30;99.90
3940;DHT22;1984;48.312;9.244;2022-09-09T17:19:26;17.20;99.90
3940;DHT22;1984;48.312;9.244;2022-09-09T17:21:51;17.20;99.90
3940;DHT22;1984;48.312;9.244;2022-09-09T17:24:17;17.10;99.90
3940;DHT22;1984;48.312;9.244;2022-09-09T17:26:43;17.10;99.90
3940;DHT22;1984;48.312;9.244;2022-09-09T17:29:10;17.10;99.90
3940;DHT22;1984;48.312;9.244;2022-09-09T17:31:36;17.00;99.90
3940;DHT22;1984;48.312;9.244;2022-09-09T17:34:02;17.00;99.90
3940;DHT22;1984;48.312;9.244;2022-09-09T17:36:33;17.00;99.90
3940;DHT22;1984;48.312;9.244;2022-09-09T17:38:59;16.90;99.90
3940;DHT22;1984;48.312;9.244;2022-09-09T17:41:30;16.90;99.90
3940;DHT22;1984;48.312;9.244;2022-09-09T17:43:56;16.80;99.90
3940;DHT22;1984;48.312;9.244;2022-09-09T17:46:31;16.80;99.90
3940;DHT22;1984;48.312;9.244;2022-09-09T17:49:02;16.70;99.90
3940;DHT22;1984;48.312;9.244;2022-09-09T17:51:29;16.60;99.90
3940;DHT22;1984;48.312;9.244;2022-09-09T17:54:01;16.60;99.90
3940;DHT22;1984;48.312;9.244;2022-09-09T17:56:29;16.50;99.90
3940;DHT22;1984;48.312;9.244;2022-09-09T17:58:56;16.40;99.90
3940;DHT22;1984;48.312;9.244;2022-09-09T18:01:25;16.40;99.90
3940;DHT22;1984;48.312;9.244;2022-09-09T18:03:53;16.30;99.90
3940;DHT22;1984;48.312;9.244;2022-09-09T18:06:24;16.20;99.90
3940;DHT22;1984;48.312;9.244;2022-09-09T18:08:54;16.10;99.90
3940;DHT22;1984;48.312;9.244;2022-09-09T18:11:22;16.10;99.90
3940;DHT22;1984;48.312;9.244;2022-09-09T18:13:50;16.00;99.90
3940;DHT22;1984;48.312;9.244;2022-09-09T18:16:17;16.00;99.90
3940;DHT22;1984;48.312;9.244;2022-09-09T18:18:44;16.00;99.90
3940;DHT22;1984;48.312;9.244;2022-09-09T18:21:11;16.00;99.90